sensor_id;sensor_type;location;lat;lon;timestamp;P1;durP1;ratioP1;P2;durP2;ratioP2
26253;SDS011;53339;51.378;0.094;2023-03-09T00:01:29;24.35;;;10.52;;
26253;SDS011;53339;51.378;0.094;2023-03-09T00:06:42;23.42;;;9.38;;
26253;SDS011;53339;51.378;0.094;2023-03-09T00:09:18;26.85;;;9.40;;
26253;SDS011;53339;51.378;0.094;2023-03-09T00:11:54;24.45;;;8.95;;
26253;SDS011;53339;51.378;0.094;2023-03-09T00:14:21;25.13;;;8.75;;
26253;SDS011;53339;51.378;0.094;2023-03-09T00:16:59;21.65;;;7.97;;
26253;SDS011;53339;51.378;0.094;2023-03-09T00:19:47;24.38;;;7.75;;
26253;SDS011;53339;51.378;0.094;2023-03-09T00:23:10;22.50;;;9.38;;
26253;SDS011;53339;51.378;0.094;2023-03-09T00:26:09;25.95;;;10.45;;
26253;SDS011;53339;51.378;0.094;2023-03-09T00:28:49;25.05;;;9.70;;
26253;SDS011;53339;51.378;0.094;2023-03-09T00:34:37;22.77;;;9.25;;
26253;SDS011;53339;51.378;0.094;2023-03-09T00:37:16;27.92;;;10.82;;
26253;SDS011;53339;51.378;0.094;2023-03-09T00:40:06;25.98;;;9.85;;
26253;SDS011;53339;51.378;0.094;2023-03-09T00:42:37;27.13;;;9.88;;
26253;SDS011;53339;51.378;0.094;2023-03-09T00:45:17;25.90;;;8.40;;
26253;SDS011;53339;51.378;0.094;2023-03-09T00:47:54;24.63;;;9.15;;
26253;SDS011;53339;51.378;0.094;2023-03-09T00:51:00;29.60;;;10.32;;
26253;SDS011;53339;51.378;0.094;2023-03-09T00:53:58;28.83;;;11.60;;
26253;SDS011;53339;51.378;0.094;2023-03-09T00:57:16;28.42;;;11.10;;
26253;SDS011;53339;51.378;0.094;2023-03-09T01:00:13;34.95;;;12.18;;
26253;SDS011;53339;51.378;0.094;2023-03-09T01:02:45;31.40;;;11.30;;
26253;SDS011;53339;51.378;0.094;2023-03-09T01:05:23;31.40;;;12.60;;
26253;SDS011;53339;51.378;0.094;2023-03-09T01:08:22;28.02;;;9.20;;
26253;SDS011;53339;51.378;0.094;2023-03-09T01:10:52;33.63;;;12.10;;
26253;SDS011;53339;51.378;0.094;2023-03-09T01:13:45;31.30;;;11.23;;
26253;SDS011;53339;51.378;0.094;2023-03-09T01:16:25;31.50;;;12.52;;
26253;SDS011;53339;51.378;0.094;2023-03-09T01:19:18;38.65;;;13.05;;
26253;SDS011;53339;51.378;0.094;2023-03-09T01:21:47;37.50;;;10.90;;
26253;SDS011;53339;51.378;0.094;2023-03-09T01:24:22;22.73;;;12.70;;
26253;SDS011;53339;51.378;0.094;2023-03-09T01:27:35;31.23;;;11.80;;
26253;SDS011;53339;51.378;0.094;2023-03-09T01:30:23;32.35;;;11.18;;
26253;SDS011;53339;51.378;0.094;2023-03-09T01:33:09;34.50;;;12.13;;
26253;SDS011;53339;51.378;0.094;2023-03-09T01:35:56;29.98;;;12.15;;
26253;SDS011;53339;51.378;0.094;2023-03-09T01:38:23;30.88;;;12.10;;
26253;SDS011;53339;51.378;0.094;2023-03-09T01:40:52;32.38;;;13.52;;
26253;SDS011;53339;51.378;0.094;2023-03-09T01:43:57;32.92;;;13.15;;
26253;SDS011;53339;51.378;0.094;2023-03-09T01:47:59;31.33;;;14.18;;
26253;SDS011;53339;51.378;0.094;2023-03-09T01:50:04;32.95;;;11.63;;
26253;SDS011;53339;51.378;0.094;2023-03-09T01:53:08;35.20;;;11.40;;
26253;SDS011;53339;51.378;0.094;2023-03-09T01:56:13;36.47;;;13.48;;
26253;SDS011;53339;51.378;0.094;2023-03-09T01:58:48;35.92;;;13.35;;
26253;SDS011;53339;51.378;0.094;2023-03-09T02:01:23;35.33;;;13.60;;
26253;SDS011;53339;51.378;0.094;2023-03-09T02:04:31;29.25;;;11.85;;
26253;SDS011;53339;51.378;0.094;2023-03-09T02:07:01;35.08;;;13.25;;
26253;SDS011;53339;51.378;0.094;2023-03-09T02:10:31;31.88;;;11.85;;
26253;SDS011;53339;51.378;0.094;2023-03-09T02:13:54;31.42;;;12.43;;
26253;SDS011;53339;51.378;0.094;2023-03-09T02:16:22;35.50;;;12.15;;
26253;SDS011;53339;51.378;0.094;2023-03-09T02:18:52;33.90;;;13.77;;
26253;SDS011;53339;51.378;0.094;2023-03-09T02:21:28;42.97;;;13.27;;
26253;SDS011;53339;51.378;0.094;2023-03-09T02:24:31;34.65;;;12.82;;
26253;SDS011;53339;51.378;0.094;2023-03-09T02:27:26;32.72;;;11.30;;
26253;SDS011;53339;51.378;0.094;2023-03-09T02:29:56;30.15;;;11.80;;
26253;SDS011;53339;51.378;0.094;2023-03-09T02:32:36;32.95;;;10.55;;
26253;SDS011;53339;51.378;0.094;2023-03-09T02:35:05;39.28;;;13.65;;
26253;SDS011;53339;51.378;0.094;2023-03-09T02:37:48;36.65;;;10.93;;
26253;SDS011;53339;51.378;0.094;2023-03-09T02:40:43;38.08;;;12.85;;
26253;SDS011;53339;51.378;0.094;2023-03-09T02:43:32;27.63;;;12.10;;
26253;SDS011;53339;51.378;0.094;2023-03-09T02:46:34;28.73;;;10.70;;
26253;SDS011;53339;51.378;0.094;2023-03-09T02:49:02;35.47;;;12.35;;
26253;SDS011;53339;51.378;0.094;2023-03-09T02:51:33;40.25;;;12.32;;
26253;SDS011;53339;51.378;0.094;2023-03-09T02:54:50;35.75;;;12.82;;
26253;SDS011;53339;51.378;0.094;2023-03-09T02:57:40;39.90;;;14.07;;
26253;SDS011;53339;51.378;0.094;2023-03-09T03:00:11;39.00;;;12.57;;
26253;SDS011;53339;51.378;0.094;2023-03-09T03:02:51;38.92;;;14.52;;
26253;SDS011;53339;51.378;0.094;2023-03-09T03:08:59;40.72;;;13.75;;
26253;SDS011;53339;51.378;0.094;2023-03-09T03:11:27;39.10;;;13.73;;
26253;SDS011;53339;51.378;0.094;2023-03-09T03:16:50;43.33;;;13.68;;
26253;SDS011;53339;51.378;0.094;2023-03-09T03:19:20;39.03;;;13.43;;
26253;SDS011;53339;51.378;0.094;2023-03-09T03:21:48;37.33;;;12.70;;
26253;SDS011;53339;51.378;0.094;2023-03-09T03:24:17;36.22;;;12.57;;
26253;SDS011;53339;51.378;0.094;2023-03-09T03:26:45;46.70;;;15.15;;
26253;SDS011;53339;51.378;0.094;2023-03-09T03:29:17;43.65;;;14.38;;
26253;SDS011;53339;51.378;0.094;2023-03-09T03:32:16;43.90;;;12.65;;
26253;SDS011;53339;51.378;0.094;2023-03-09T03:34:55;25.35;;;10.85;;
26253;SDS011;53339;51.378;0.094;2023-03-09T03:37:44;27.83;;;10.82;;
26253;SDS011;53339;51.378;0.094;2023-03-09T03:40:19;42.33;;;14.38;;
26253;SDS011;53339;51.378;0.094;2023-03-09T03:43:03;39.90;;;14.20;;
26253;SDS011;53339;51.378;0.094;2023-03-09T03:45:34;59.10;;;16.75;;
26253;SDS011;53339;51.378;0.094;2023-03-09T03:48:08;41.45;;;14.25;;
26253;SDS011;53339;51.378;0.094;2023-03-09T03:50:37;35.33;;;14.70;;
26253;SDS011;53339;51.378;0.094;2023-03-09T03:53:28;153.55;;;23.73;;
26253;SDS011;53339;51.378;0.094;2023-03-09T03:55:59;48.60;;;16.10;;
26253;SDS011;53339;51.378;0.094;2023-03-09T03:58:49;41.28;;;12.85;;
26253;SDS011;53339;51.378;0.094;2023-03-09T04:01:19;44.53;;;14.35;;
26253;SDS011;53339;51.378;0.094;2023-03-09T04:04:19;51.53;;;15.65;;
26253;SDS011;53339;51.378;0.094;2023-03-09T04:06:55;42.28;;;13.40;;
26253;SDS011;53339;51.378;0.094;2023-03-09T04:12:31;40.50;;;14.18;;
26253;SDS011;53339;51.378;0.094;2023-03-09T04:15:14;20.38;;;8.77;;
26253;SDS011;53339;51.378;0.094;2023-03-09T04:17:42;37.92;;;15.32;;
26253;SDS011;53339;51.378;0.094;2023-03-09T04:20:11;47.05;;;14.93;;
26253;SDS011;53339;51.378;0.094;2023-03-09T04:23:24;44.13;;;14.63;;
26253;SDS011;53339;51.378;0.094;2023-03-09T04:25:57;39.13;;;12.57;;
26253;SDS011;53339;51.378;0.094;2023-03-09T04:28:51;43.00;;;13.90;;
26253;SDS011;53339;51.378;0.094;2023-03-09T04:31:51;36.53;;;12.73;;
26253;SDS011;53339;51.378;0.094;2023-03-09T04:34:19;40.30;;;15.32;;
26253;SDS011;53339;51.378;0.094;2023-03-09T04:36:47;30.48;;;13.40;;
26253;SDS011;53339;51.378;0.094;2023-03-09T04:39:37;41.42;;;13.05;;
26253;SDS011;53339;51.378;0.094;2023-03-09T04:42:31;42.85;;;15.05;;
26253;SDS011;53339;51.378;0.094;2023-03-09T04:45:44;35.53;;;15.75;;
26253;SDS011;53339;51.378;0.094;2023-03-09T04:48:12;36.65;;;15.73;;
26253;SDS011;53339;51.378;0.094;2023-03-09T04:50:46;41.78;;;15.30;;
26253;SDS011;53339;51.378;0.094;2023-03-09T04:53:28;34.28;;;13.23;;
26253;SDS011;53339;51.378;0.094;2023-03-09T04:56:05;33.17;;;13.63;;
26253;SDS011;53339;51.378;0.094;2023-03-09T04:58:44;47.03;;;14.40;;
26253;SDS011;53339;51.378;0.094;2023-03-09T05:01:56;51.13;;;17.02;;
26253;SDS011;53339;51.378;0.094;2023-03-09T05:04:46;47.10;;;17.35;;
26253;SDS011;53339;51.378;0.094;2023-03-09T05:07:14;49.35;;;16.05;;
26253;SDS011;53339;51.378;0.094;2023-03-09T05:09:42;49.58;;;16.80;;
26253;SDS011;53339;51.378;0.094;2023-03-09T05:12:11;50.53;;;17.77;;
26253;SDS011;53339;51.378;0.094;2023-03-09T05:14:40;48.53;;;17.25;;
26253;SDS011;53339;51.378;0.094;2023-03-09T05:17:11;54.10;;;18.98;;
26253;SDS011;53339;51.378;0.094;2023-03-09T05:19:40;45.17;;;18.38;;
26253;SDS011;53339;51.378;0.094;2023-03-09T05:22:08;54.75;;;20.83;;
26253;SDS011;53339;51.378;0.094;2023-03-09T05:24:37;44.30;;;16.48;;
26253;SDS011;53339;51.378;0.094;2023-03-09T05:27:18;49.83;;;18.45;;
26253;SDS011;53339;51.378;0.094;2023-03-09T05:30:00;43.17;;;15.70;;
26253;SDS011;53339;51.378;0.094;2023-03-09T05:32:47;42.55;;;16.40;;
26253;SDS011;53339;51.378;0.094;2023-03-09T05:35:22;45.55;;;16.48;;
26253;SDS011;53339;51.378;0.094;2023-03-09T05:38:28;53.50;;;17.15;;
26253;SDS011;53339;51.378;0.094;2023-03-09T05:41:03;45.38;;;16.20;;
26253;SDS011;53339;51.378;0.094;2023-03-09T05:43:34;56.45;;;19.95;;
26253;SDS011;53339;51.378;0.094;2023-03-09T05:46:03;52.95;;;17.65;;
26253;SDS011;53339;51.378;0.094;2023-03-09T05:48:35;44.85;;;16.00;;
26253;SDS011;53339;51.378;0.094;2023-03-09T05:51:07;50.17;;;15.63;;
26253;SDS011;53339;51.378;0.094;2023-03-09T05:53:40;50.58;;;18.10;;
26253;SDS011;53339;51.378;0.094;2023-03-09T05:56:18;50.88;;;20.02;;
26253;SDS011;53339;51.378;0.094;2023-03-09T05:59:04;51.42;;;19.83;;
26253;SDS011;53339;51.378;0.094;2023-03-09T06:04:42;44.15;;;14.98;;
26253;SDS011;53339;51.378;0.094;2023-03-09T06:07:15;54.25;;;18.65;;
26253;SDS011;53339;51.378;0.094;2023-03-09T06:10:25;54.85;;;18.67;;
26253;SDS011;53339;51.378;0.094;2023-03-09T06:12:54;52.33;;;17.88;;
26253;SDS011;53339;51.378;0.094;2023-03-09T06:15:24;45.42;;;17.50;;
26253;SDS011;53339;51.378;0.094;2023-03-09T06:17:54;48.65;;;18.15;;
26253;SDS011;53339;51.378;0.094;2023-03-09T06:21:10;55.95;;;17.90;;
26253;SDS011;53339;51.378;0.094;2023-03-09T06:23:38;41.20;;;17.00;;
26253;SDS011;53339;51.378;0.094;2023-03-09T06:26:12;42.42;;;17.52;;
26253;SDS011;53339;51.378;0.094;2023-03-09T06:28:47;53.53;;;17.52;;
26253;SDS011;53339;51.378;0.094;2023-03-09T06:31:41;49.13;;;18.92;;
26253;SDS011;53339;51.378;0.094;2023-03-09T06:34:38;47.72;;;16.40;;
26253;SDS011;53339;51.378;0.094;2023-03-09T06:37:18;46.80;;;16.70;;
26253;SDS011;53339;51.378;0.094;2023-03-09T06:40:33;48.05;;;15.43;;
26253;SDS011;53339;51.378;0.094;2023-03-09T06:43:01;42.78;;;15.27;;
26253;SDS011;53339;51.378;0.094;2023-03-09T06:45:47;59.28;;;19.98;;
26253;SDS011;53339;51.378;0.094;2023-03-09T06:48:33;56.42;;;18.38;;
26253;SDS011;53339;51.378;0.094;2023-03-09T06:51:01;55.55;;;16.35;;
26253;SDS011;53339;51.378;0.094;2023-03-09T06:53:42;49.08;;;15.90;;
26253;SDS011;53339;51.378;0.094;2023-03-09T06:56:19;45.65;;;16.15;;
26253;SDS011;53339;51.378;0.094;2023-03-09T06:59:20;55.88;;;16.33;;
26253;SDS011;53339;51.378;0.094;2023-03-09T07:01:51;58.83;;;18.40;;
26253;SDS011;53339;51.378;0.094;2023-03-09T07:04:35;52.97;;;17.20;;
26253;SDS011;53339;51.378;0.094;2023-03-09T07:07:17;46.38;;;15.20;;
26253;SDS011;53339;51.378;0.094;2023-03-09T07:09:46;49.83;;;16.05;;
26253;SDS011;53339;51.378;0.094;2023-03-09T07:12:36;56.05;;;15.77;;
26253;SDS011;53339;51.378;0.094;2023-03-09T07:15:06;46.92;;;14.50;;
26253;SDS011;53339;51.378;0.094;2023-03-09T07:18:10;53.00;;;17.33;;
26253;SDS011;53339;51.378;0.094;2023-03-09T07:21:00;53.47;;;15.80;;
26253;SDS011;53339;51.378;0.094;2023-03-09T07:24:06;49.15;;;14.63;;
26253;SDS011;53339;51.378;0.094;2023-03-09T07:26:34;45.38;;;14.85;;
26253;SDS011;53339;51.378;0.094;2023-03-09T07:29:02;63.90;;;20.00;;
26253;SDS011;53339;51.378;0.094;2023-03-09T07:31:44;50.47;;;16.90;;
26253;SDS011;53339;51.378;0.094;2023-03-09T07:34:33;53.67;;;16.60;;
26253;SDS011;53339;51.378;0.094;2023-03-09T07:37:28;62.45;;;20.02;;
26253;SDS011;53339;51.378;0.094;2023-03-09T07:40:14;50.38;;;16.08;;
26253;SDS011;53339;51.378;0.094;2023-03-09T07:42:43;46.47;;;16.30;;
26253;SDS011;53339;51.378;0.094;2023-03-09T07:45:45;55.83;;;16.02;;
26253;SDS011;53339;51.378;0.094;2023-03-09T07:48:14;52.47;;;16.92;;
26253;SDS011;53339;51.378;0.094;2023-03-09T07:50:58;53.67;;;16.35;;
26253;SDS011;53339;51.378;0.094;2023-03-09T07:53:32;56.42;;;16.38;;
26253;SDS011;53339;51.378;0.094;2023-03-09T07:56:25;53.28;;;17.60;;
26253;SDS011;53339;51.378;0.094;2023-03-09T07:58:54;57.47;;;16.20;;
26253;SDS011;53339;51.378;0.094;2023-03-09T08:01:36;55.88;;;15.90;;
26253;SDS011;53339;51.378;0.094;2023-03-09T08:04:52;40.22;;;14.05;;
26253;SDS011;53339;51.378;0.094;2023-03-09T08:07:57;55.10;;;17.17;;
26253;SDS011;53339;51.378;0.094;2023-03-09T08:10:27;63.08;;;17.40;;
26253;SDS011;53339;51.378;0.094;2023-03-09T08:13:50;44.33;;;13.43;;
26253;SDS011;53339;51.378;0.094;2023-03-09T08:16:40;41.42;;;14.00;;
26253;SDS011;53339;51.378;0.094;2023-03-09T08:19:19;55.72;;;17.60;;
26253;SDS011;53339;51.378;0.094;2023-03-09T08:21:50;52.50;;;15.35;;
26253;SDS011;53339;51.378;0.094;2023-03-09T08:24:39;47.10;;;15.90;;
26253;SDS011;53339;51.378;0.094;2023-03-09T08:27:42;41.65;;;13.80;;
26253;SDS011;53339;51.378;0.094;2023-03-09T08:30:14;41.95;;;13.52;;
26253;SDS011;53339;51.378;0.094;2023-03-09T08:32:59;46.72;;;15.23;;
26253;SDS011;53339;51.378;0.094;2023-03-09T08:36:13;39.72;;;12.93;;
26253;SDS011;53339;51.378;0.094;2023-03-09T08:39:14;40.30;;;11.70;;
26253;SDS011;53339;51.378;0.094;2023-03-09T08:41:56;35.97;;;13.27;;
26253;SDS011;53339;51.378;0.094;2023-03-09T08:44:40;36.38;;;12.93;;
26253;SDS011;53339;51.378;0.094;2023-03-09T08:47:17;38.00;;;12.70;;
26253;SDS011;53339;51.378;0.094;2023-03-09T08:49:55;27.17;;;10.27;;
26253;SDS011;53339;51.378;0.094;2023-03-09T08:52:31;29.52;;;10.07;;
26253;SDS011;53339;51.378;0.094;2023-03-09T08:55:12;27.38;;;11.00;;
26253;SDS011;53339;51.378;0.094;2023-03-09T08:57:51;29.67;;;11.15;;
26253;SDS011;53339;51.378;0.094;2023-03-09T09:03:16;27.52;;;9.23;;
26253;SDS011;53339;51.378;0.094;2023-03-09T09:05:46;28.55;;;11.82;;
26253;SDS011;53339;51.378;0.094;2023-03-09T09:08:20;26.13;;;9.88;;
26253;SDS011;53339;51.378;0.094;2023-03-09T09:10:50;20.55;;;7.90;;
26253;SDS011;53339;51.378;0.094;2023-03-09T09:13:25;25.77;;;9.38;;
26253;SDS011;53339;51.378;0.094;2023-03-09T09:16:11;24.17;;;8.73;;
26253;SDS011;53339;51.378;0.094;2023-03-09T09:18:42;22.30;;;9.25;;
26253;SDS011;53339;51.378;0.094;2023-03-09T09:21:22;19.73;;;7.85;;
26253;SDS011;53339;51.378;0.094;2023-03-09T09:24:07;22.50;;;8.45;;
26253;SDS011;53339;51.378;0.094;2023-03-09T09:27:00;18.67;;;8.75;;
26253;SDS011;53339;51.378;0.094;2023-03-09T09:29:30;16.98;;;7.85;;
26253;SDS011;53339;51.378;0.094;2023-03-09T09:32:13;21.65;;;7.80;;
26253;SDS011;53339;51.378;0.094;2023-03-09T09:34:52;17.45;;;7.60;;
26253;SDS011;53339;51.378;0.094;2023-03-09T09:37:40;16.48;;;6.60;;
26253;SDS011;53339;51.378;0.094;2023-03-09T09:40:15;19.95;;;8.50;;
26253;SDS011;53339;51.378;0.094;2023-03-09T09:43:32;18.60;;;7.30;;
26253;SDS011;53339;51.378;0.094;2023-03-09T09:46:17;18.83;;;7.35;;
26253;SDS011;53339;51.378;0.094;2023-03-09T09:49:25;21.33;;;8.68;;
26253;SDS011;53339;51.378;0.094;2023-03-09T09:52:16;19.83;;;7.72;;
26253;SDS011;53339;51.378;0.094;2023-03-09T10:00:52;19.08;;;7.65;;
26253;SDS011;53339;51.378;0.094;2023-03-09T10:03:42;14.60;;;7.43;;
26253;SDS011;53339;51.378;0.094;2023-03-09T10:06:40;11.60;;;4.40;;
26253;SDS011;53339;51.378;0.094;2023-03-09T10:10:06;17.20;;;7.15;;
26253;SDS011;53339;51.378;0.094;2023-03-09T10:12:43;13.55;;;5.75;;
26253;SDS011;53339;51.378;0.094;2023-03-09T10:15:28;15.73;;;7.40;;
26253;SDS011;53339;51.378;0.094;2023-03-09T10:18:10;16.95;;;7.57;;
26253;SDS011;53339;51.378;0.094;2023-03-09T10:20:46;14.07;;;5.80;;
26253;SDS011;53339;51.378;0.094;2023-03-09T10:23:41;17.45;;;6.05;;
26253;SDS011;53339;51.378;0.094;2023-03-09T10:26:17;14.30;;;6.78;;
26253;SDS011;53339;51.378;0.094;2023-03-09T10:28:57;13.93;;;6.63;;
26253;SDS011;53339;51.378;0.094;2023-03-09T10:31:54;13.82;;;5.80;;
26253;SDS011;53339;51.378;0.094;2023-03-09T10:38:32;11.60;;;5.45;;
26253;SDS011;53339;51.378;0.094;2023-03-09T10:41:15;12.60;;;5.70;;
26253;SDS011;53339;51.378;0.094;2023-03-09T10:43:52;13.40;;;5.72;;
26253;SDS011;53339;51.378;0.094;2023-03-09T10:46:25;14.35;;;5.80;;
26253;SDS011;53339;51.378;0.094;2023-03-09T10:49:15;11.82;;;5.72;;
26253;SDS011;53339;51.378;0.094;2023-03-09T10:52:17;12.02;;;5.00;;
26253;SDS011;53339;51.378;0.094;2023-03-09T10:55:52;11.02;;;5.30;;
26253;SDS011;53339;51.378;0.094;2023-03-09T10:58:10;12.90;;;5.13;;
26253;SDS011;53339;51.378;0.094;2023-03-09T11:00:57;11.60;;;5.20;;
26253;SDS011;53339;51.378;0.094;2023-03-09T11:03:40;16.13;;;6.43;;
26253;SDS011;53339;51.378;0.094;2023-03-09T11:06:30;14.13;;;6.32;;
26253;SDS011;53339;51.378;0.094;2023-03-09T11:11:55;24.27;;;7.43;;
26253;SDS011;53339;51.378;0.094;2023-03-09T11:15:36;17.20;;;9.07;;
26253;SDS011;53339;51.378;0.094;2023-03-09T11:18:28;19.40;;;9.68;;
26253;SDS011;53339;51.378;0.094;2023-03-09T11:20:57;16.83;;;7.25;;
26253;SDS011;53339;51.378;0.094;2023-03-09T11:23:54;17.45;;;7.80;;
26253;SDS011;53339;51.378;0.094;2023-03-09T11:26:46;22.10;;;8.85;;
26253;SDS011;53339;51.378;0.094;2023-03-09T11:32:30;15.77;;;6.35;;
26253;SDS011;53339;51.378;0.094;2023-03-09T11:35:03;13.25;;;6.95;;
26253;SDS011;53339;51.378;0.094;2023-03-09T11:37:47;519.00;;;49.15;;
26253;SDS011;53339;51.378;0.094;2023-03-09T11:41:12;12.48;;;6.80;;
26253;SDS011;53339;51.378;0.094;2023-03-09T11:43:49;12.43;;;4.88;;
26253;SDS011;53339;51.378;0.094;2023-03-09T11:46:59;14.35;;;7.47;;
26253;SDS011;53339;51.378;0.094;2023-03-09T11:49:59;14.55;;;6.05;;
26253;SDS011;53339;51.378;0.094;2023-03-09T11:53:09;16.52;;;6.32;;
26253;SDS011;53339;51.378;0.094;2023-03-09T11:56:17;15.25;;;6.57;;
26253;SDS011;53339;51.378;0.094;2023-03-09T11:59:43;11.52;;;5.85;;
26253;SDS011;53339;51.378;0.094;2023-03-09T12:03:24;13.68;;;6.13;;
26253;SDS011;53339;51.378;0.094;2023-03-09T12:06:46;11.07;;;6.38;;
26253;SDS011;53339;51.378;0.094;2023-03-09T12:09:44;13.23;;;6.13;;
26253;SDS011;53339;51.378;0.094;2023-03-09T12:12:42;13.45;;;6.32;;
26253;SDS011;53339;51.378;0.094;2023-03-09T12:21:48;16.85;;;4.55;;
26253;SDS011;53339;51.378;0.094;2023-03-09T12:24:42;12.52;;;4.40;;
26253;SDS011;53339;51.378;0.094;2023-03-09T12:27:21;18.05;;;5.68;;
26253;SDS011;53339;51.378;0.094;2023-03-09T12:30:05;15.15;;;5.13;;
26253;SDS011;53339;51.378;0.094;2023-03-09T12:33:07;19.95;;;6.82;;
26253;SDS011;53339;51.378;0.094;2023-03-09T12:38:20;22.45;;;6.90;;
26253;SDS011;53339;51.378;0.094;2023-03-09T12:40:51;22.55;;;5.68;;
26253;SDS011;53339;51.378;0.094;2023-03-09T12:43:46;21.63;;;6.93;;
26253;SDS011;53339;51.378;0.094;2023-03-09T12:49:31;27.40;;;7.82;;
26253;SDS011;53339;51.378;0.094;2023-03-09T12:52:10;25.58;;;6.82;;
26253;SDS011;53339;51.378;0.094;2023-03-09T12:55:08;21.17;;;6.28;;
26253;SDS011;53339;51.378;0.094;2023-03-09T13:01:38;28.67;;;6.28;;
26253;SDS011;53339;51.378;0.094;2023-03-09T13:04:32;20.48;;;5.07;;
26253;SDS011;53339;51.378;0.094;2023-03-09T13:07:13;17.38;;;5.07;;
26253;SDS011;53339;51.378;0.094;2023-03-09T13:09:46;25.33;;;5.80;;
26253;SDS011;53339;51.378;0.094;2023-03-09T13:12:29;25.30;;;5.75;;
26253;SDS011;53339;51.378;0.094;2023-03-09T13:15:39;26.30;;;4.53;;
26253;SDS011;53339;51.378;0.094;2023-03-09T13:18:28;20.67;;;5.22;;
26253;SDS011;53339;51.378;0.094;2023-03-09T13:27:25;13.30;;;3.30;;
26253;SDS011;53339;51.378;0.094;2023-03-09T13:30:17;14.15;;;3.63;;
26253;SDS011;53339;51.378;0.094;2023-03-09T13:33:00;13.98;;;3.63;;
26253;SDS011;53339;51.378;0.094;2023-03-09T13:36:06;14.40;;;4.25;;
26253;SDS011;53339;51.378;0.094;2023-03-09T13:38:43;16.45;;;4.75;;
26253;SDS011;53339;51.378;0.094;2023-03-09T13:41:30;24.38;;;4.53;;
26253;SDS011;53339;51.378;0.094;2023-03-09T13:44:25;18.13;;;5.05;;
26253;SDS011;53339;51.378;0.094;2023-03-09T13:46:56;10.38;;;3.45;;
26253;SDS011;53339;51.378;0.094;2023-03-09T13:49:44;11.82;;;2.78;;
26253;SDS011;53339;51.378;0.094;2023-03-09T13:52:21;12.77;;;2.90;;
26253;SDS011;53339;51.378;0.094;2023-03-09T13:55:36;12.57;;;3.70;;
26253;SDS011;53339;51.378;0.094;2023-03-09T13:58:15;8.05;;;3.20;;
26253;SDS011;53339;51.378;0.094;2023-03-09T14:01:00;12.20;;;3.63;;
26253;SDS011;53339;51.378;0.094;2023-03-09T14:03:59;18.88;;;3.75;;
26253;SDS011;53339;51.378;0.094;2023-03-09T14:13:49;11.55;;;3.40;;
26253;SDS011;53339;51.378;0.094;2023-03-09T14:17:19;9.65;;;3.30;;
26253;SDS011;53339;51.378;0.094;2023-03-09T14:20:35;8.18;;;2.55;;
26253;SDS011;53339;51.378;0.094;2023-03-09T14:23:17;14.63;;;3.30;;
26253;SDS011;53339;51.378;0.094;2023-03-09T14:26:37;12.00;;;2.70;;
26253;SDS011;53339;51.378;0.094;2023-03-09T14:29:29;8.57;;;3.40;;
26253;SDS011;53339;51.378;0.094;2023-03-09T14:35:22;14.98;;;2.97;;
26253;SDS011;53339;51.378;0.094;2023-03-09T14:39:52;8.18;;;2.65;;
26253;SDS011;53339;51.378;0.094;2023-03-09T14:42:37;13.00;;;2.75;;
26253;SDS011;53339;51.378;0.094;2023-03-09T14:48:48;11.63;;;2.92;;
26253;SDS011;53339;51.378;0.094;2023-03-09T14:51:56;9.85;;;3.28;;
26253;SDS011;53339;51.378;0.094;2023-03-09T14:55:05;10.98;;;2.65;;
26253;SDS011;53339;51.378;0.094;2023-03-09T14:58:10;9.20;;;2.78;;
26253;SDS011;53339;51.378;0.094;2023-03-09T15:01:21;17.15;;;4.55;;
26253;SDS011;53339;51.378;0.094;2023-03-09T15:04:50;10.48;;;5.20;;
26253;SDS011;53339;51.378;0.094;2023-03-09T15:07:35;14.88;;;4.43;;
26253;SDS011;53339;51.378;0.094;2023-03-09T15:10:03;8.95;;;2.90;;
26253;SDS011;53339;51.378;0.094;2023-03-09T15:12:54;8.50;;;1.85;;
26253;SDS011;53339;51.378;0.094;2023-03-09T15:15:23;8.77;;;3.83;;
26253;SDS011;53339;51.378;0.094;2023-03-09T15:18:10;7.07;;;2.30;;
26253;SDS011;53339;51.378;0.094;2023-03-09T15:20:42;8.65;;;2.00;;
26253;SDS011;53339;51.378;0.094;2023-03-09T15:23:22;10.98;;;4.45;;
26253;SDS011;53339;51.378;0.094;2023-03-09T15:25:57;7.80;;;2.30;;
26253;SDS011;53339;51.378;0.094;2023-03-09T15:28:38;8.32;;;4.90;;
26253;SDS011;53339;51.378;0.094;2023-03-09T15:31:16;6.30;;;2.05;;
26253;SDS011;53339;51.378;0.094;2023-03-09T15:34:02;7.57;;;1.50;;
26253;SDS011;53339;51.378;0.094;2023-03-09T15:36:51;4.05;;;3.63;;
26253;SDS011;53339;51.378;0.094;2023-03-09T15:39:24;6.57;;;4.30;;
26253;SDS011;53339;51.378;0.094;2023-03-09T15:42:14;6.90;;;2.10;;
26253;SDS011;53339;51.378;0.094;2023-03-09T15:45:02;3.40;;;1.30;;
26253;SDS011;53339;51.378;0.094;2023-03-09T15:47:39;8.13;;;1.77;;
26253;SDS011;53339;51.378;0.094;2023-03-09T15:50:30;4.95;;;1.35;;
26253;SDS011;53339;51.378;0.094;2023-03-09T15:53:29;7.65;;;1.98;;
26253;SDS011;53339;51.378;0.094;2023-03-09T15:56:10;7.70;;;4.15;;
26253;SDS011;53339;51.378;0.094;2023-03-09T15:58:45;7.50;;;3.33;;
26253;SDS011;53339;51.378;0.094;2023-03-09T16:01:15;9.15;;;4.30;;
26253;SDS011;53339;51.378;0.094;2023-03-09T16:03:56;7.95;;;4.82;;
26253;SDS011;53339;51.378;0.094;2023-03-09T16:06:38;10.15;;;4.35;;
26253;SDS011;53339;51.378;0.094;2023-03-09T16:09:14;8.80;;;4.03;;
26253;SDS011;53339;51.378;0.094;2023-03-09T16:11:52;5.57;;;2.63;;
26253;SDS011;53339;51.378;0.094;2023-03-09T16:14:44;7.95;;;1.92;;
26253;SDS011;53339;51.378;0.094;2023-03-09T16:17:17;7.65;;;1.60;;
26253;SDS011;53339;51.378;0.094;2023-03-09T16:19:45;10.13;;;4.72;;
26253;SDS011;53339;51.378;0.094;2023-03-09T16:22:27;6.93;;;5.07;;
26253;SDS011;53339;51.378;0.094;2023-03-09T16:25:07;7.45;;;4.00;;
26253;SDS011;53339;51.378;0.094;2023-03-09T16:27:49;9.38;;;4.93;;
26253;SDS011;53339;51.378;0.094;2023-03-09T16:30:23;5.28;;;3.58;;
26253;SDS011;53339;51.378;0.094;2023-03-09T16:33:16;11.55;;;4.68;;
26253;SDS011;53339;51.378;0.094;2023-03-09T16:35:44;10.50;;;3.10;;
26253;SDS011;53339;51.378;0.094;2023-03-09T16:38:28;12.38;;;2.72;;
26253;SDS011;53339;51.378;0.094;2023-03-09T16:41:07;10.23;;;4.20;;
26253;SDS011;53339;51.378;0.094;2023-03-09T16:46:23;10.77;;;5.20;;
26253;SDS011;53339;51.378;0.094;2023-03-09T16:49:10;10.70;;;5.60;;
26253;SDS011;53339;51.378;0.094;2023-03-09T16:51:53;10.95;;;3.20;;
26253;SDS011;53339;51.378;0.094;2023-03-09T16:54:25;6.63;;;5.00;;
26253;SDS011;53339;51.378;0.094;2023-03-09T16:57:02;6.57;;;4.25;;
26253;SDS011;53339;51.378;0.094;2023-03-09T17:02:51;6.53;;;2.70;;
26253;SDS011;53339;51.378;0.094;2023-03-09T17:05:18;6.00;;;4.63;;
26253;SDS011;53339;51.378;0.094;2023-03-09T17:07:46;9.82;;;5.32;;
26253;SDS011;53339;51.378;0.094;2023-03-09T17:10:16;5.25;;;3.88;;
26253;SDS011;53339;51.378;0.094;2023-03-09T17:12:54;6.90;;;4.50;;
26253;SDS011;53339;51.378;0.094;2023-03-09T17:15:21;7.40;;;5.45;;
26253;SDS011;53339;51.378;0.094;2023-03-09T17:17:53;7.28;;;4.90;;
26253;SDS011;53339;51.378;0.094;2023-03-09T17:20:40;6.50;;;2.05;;
26253;SDS011;53339;51.378;0.094;2023-03-09T17:23:28;5.43;;;4.88;;
26253;SDS011;53339;51.378;0.094;2023-03-09T17:26:48;7.50;;;4.85;;
26253;SDS011;53339;51.378;0.094;2023-03-09T17:29:20;13.52;;;5.43;;
26253;SDS011;53339;51.378;0.094;2023-03-09T17:32:18;6.15;;;2.53;;
26253;SDS011;53339;51.378;0.094;2023-03-09T17:35:03;8.15;;;3.25;;
26253;SDS011;53339;51.378;0.094;2023-03-09T17:37:37;10.75;;;5.40;;